sensor_id;sensor_type;location;lat;lon;timestamp;pressure;altitude;pressure_sealevel;temperature;humidity
69855;BME280;57146;48.140;16.304;2023-07-31T00:01:06;99241.59;;;18.66;69.23
69855;BME280;57146;48.140;16.304;2023-07-31T00:03:32;99239.22;;;18.61;68.13
69855;BME280;57146;48.140;16.304;2023-07-31T00:06:00;99235.34;;;18.58;67.95
69855;BME280;57146;48.140;16.304;2023-07-31T00:08:29;99239.94;;;18.58;67.89
69855;BME280;57146;48.140;16.304;2023-07-31T00:10:56;99240.97;;;18.53;68.84
69855;BME280;57146;48.140;16.304;2023-07-31T00:13:23;99248.13;;;18.49;68.04
69855;BME280;57146;48.140;16.304;2023-07-31T00:15:50;99243.50;;;18.46;68.95
69855;BME280;57146;48.140;16.304;2023-07-31T00:18:17;99246.47;;;18.41;68.05
69855;BME280;57146;48.140;16.304;2023-07-31T00:20:44;99250.59;;;18.38;68.22
69855;BME280;57146;48.140;16.304;2023-07-31T00:23:11;99248.22;;;18.33;68.97
69855;BME280;57146;48.140;16.304;2023-07-31T00:25:38;99255.78;;;18.31;69.86
69855;BME280;57146;48.140;16.304;2023-07-31T00:28:05;99259.00;;;18.21;69.97
69855;BME280;57146;48.140;16.304;2023-07-31T00:30:32;99258.47;;;18.12;70.02
69855;BME280;57146;48.140;16.304;2023-07-31T00:33:00;99259.84;;;18.06;69.38
69855;BME280;57146;48.140;16.304;2023-07-31T00:35:29;99255.91;;;18.00;70.71
69855;BME280;57146;48.140;16.304;2023-07-31T00:37:59;99248.22;;;17.94;69.51
69855;BME280;57146;48.140;16.304;2023-07-31T00:40:26;99254.59;;;17.90;70.16
69855;BME280;57146;48.140;16.304;2023-07-31T00:42:53;99254.06;;;17.84;71.07
69855;BME280;57146;48.140;16.304;2023-07-31T00:45:22;99257.59;;;17.88;71.40
69855;BME280;57146;48.140;16.304;2023-07-31T00:47:51;99264.31;;;17.82;71.78
69855;BME280;57146;48.140;16.304;2023-07-31T00:50:18;99265.69;;;17.76;71.38
69855;BME280;57146;48.140;16.304;2023-07-31T00:52:46;99260.88;;;17.66;71.80
69855;BME280;57146;48.140;16.304;2023-07-31T00:55:14;99268.34;;;17.60;71.08
69855;BME280;57146;48.140;16.304;2023-07-31T00:57:41;99262.19;;;17.56;71.69
69855;BME280;57146;48.140;16.304;2023-07-31T01:00:11;99267.78;;;17.51;70.84
69855;BME280;57146;48.140;16.304;2023-07-31T01:02:38;99265.81;;;17.48;72.94
69855;BME280;57146;48.140;16.304;2023-07-31T01:05:06;99260.66;;;17.39;72.27
69855;BME280;57146;48.140;16.304;2023-07-31T01:10:23;99260.47;;;17.32;74.81
69855;BME280;57146;48.140;16.304;2023-07-31T01:12:53;99258.53;;;17.29;73.70
69855;BME280;57146;48.140;16.304;2023-07-31T01:15:20;99252.69;;;17.23;73.80
69855;BME280;57146;48.140;16.304;2023-07-31T01:17:48;99255.94;;;17.17;74.10
69855;BME280;57146;48.140;16.304;2023-07-31T01:20:23;99247.28;;;17.20;74.57
69855;BME280;57146;48.140;16.304;2023-07-31T01:26:18;99247.19;;;17.16;74.75
69855;BME280;57146;48.140;16.304;2023-07-31T01:29:03;99251.91;;;17.23;74.85
69855;BME280;57146;48.140;16.304;2023-07-31T01:31:39;99257.47;;;17.18;74.76
69855;BME280;57146;48.140;16.304;2023-07-31T01:34:08;99257.06;;;17.16;75.41
69855;BME280;57146;48.140;16.304;2023-07-31T01:36:36;99260.13;;;17.18;75.04
69855;BME280;57146;48.140;16.304;2023-07-31T01:39:04;99251.16;;;17.22;74.04
69855;BME280;57146;48.140;16.304;2023-07-31T01:41:32;99258.19;;;17.31;74.12
69855;BME280;57146;48.140;16.304;2023-07-31T01:43:59;99253.97;;;17.30;74.58
69855;BME280;57146;48.140;16.304;2023-07-31T01:46:26;99265.72;;;17.29;73.95
69855;BME280;57146;48.140;16.304;2023-07-31T01:48:53;99260.66;;;17.23;74.86
69855;BME280;57146;48.140;16.304;2023-07-31T01:51:23;99258.38;;;17.22;75.05
69855;BME280;57146;48.140;16.304;2023-07-31T01:53:50;99264.44;;;17.22;74.26
69855;BME280;57146;48.140;16.304;2023-07-31T01:56:17;99257.16;;;17.19;75.57
69855;BME280;57146;48.140;16.304;2023-07-31T01:58:44;99256.78;;;17.21;75.72
69855;BME280;57146;48.140;16.304;2023-07-31T02:01:11;99262.97;;;17.09;75.53
69855;BME280;57146;48.140;16.304;2023-07-31T02:03:38;99262.91;;;17.06;76.33
69855;BME280;57146;48.140;16.304;2023-07-31T02:06:05;99266.31;;;17.06;75.69
69855;BME280;57146;48.140;16.304;2023-07-31T02:08:32;99271.72;;;17.10;74.94
69855;BME280;57146;48.140;16.304;2023-07-31T02:10:59;99276.19;;;17.06;73.90
69855;BME280;57146;48.140;16.304;2023-07-31T02:13:26;99276.88;;;17.03;74.83
69855;BME280;57146;48.140;16.304;2023-07-31T02:15:53;99291.19;;;16.98;75.78
69855;BME280;57146;48.140;16.304;2023-07-31T02:18:20;99282.50;;;16.85;75.90
69855;BME280;57146;48.140;16.304;2023-07-31T02:20:52;99286.19;;;16.81;76.87
69855;BME280;57146;48.140;16.304;2023-07-31T02:23:19;99282.84;;;16.84;77.07
69855;BME280;57146;48.140;16.304;2023-07-31T02:25:46;99284.25;;;16.93;76.74
69855;BME280;57146;48.140;16.304;2023-07-31T02:28:14;99282.00;;;16.95;75.76
69855;BME280;57146;48.140;16.304;2023-07-31T02:30:44;99276.69;;;16.95;75.93
69855;BME280;57146;48.140;16.304;2023-07-31T02:33:11;99286.47;;;16.91;75.36
69855;BME280;57146;48.140;16.304;2023-07-31T02:35:38;99281.06;;;16.88;75.83
69855;BME280;57146;48.140;16.304;2023-07-31T02:38:05;99285.59;;;16.87;75.27
69855;BME280;57146;48.140;16.304;2023-07-31T02:40:32;99289.47;;;16.90;75.92
69855;BME280;57146;48.140;16.304;2023-07-31T02:42:59;99289.31;;;16.83;77.48
69855;BME280;57146;48.140;16.304;2023-07-31T02:45:26;99282.78;;;16.80;78.05
69855;BME280;57146;48.140;16.304;2023-07-31T02:47:53;99296.28;;;16.75;77.42
69855;BME280;57146;48.140;16.304;2023-07-31T02:50:20;99298.72;;;16.80;78.12
69855;BME280;57146;48.140;16.304;2023-07-31T02:52:47;99292.75;;;16.71;78.22
69855;BME280;57146;48.140;16.304;2023-07-31T02:55:14;99291.19;;;16.70;78.58
69855;BME280;57146;48.140;16.304;2023-07-31T02:57:41;99296.06;;;16.68;78.11
69855;BME280;57146;48.140;16.304;2023-07-31T03:00:08;99289.88;;;16.64;79.42
69855;BME280;57146;48.140;16.304;2023-07-31T03:02:35;99300.31;;;16.57;79.23
69855;BME280;57146;48.140;16.304;2023-07-31T03:05:03;99297.00;;;16.60;79.04
69855;BME280;57146;48.140;16.304;2023-07-31T03:07:30;99301.19;;;16.61;79.23
69855;BME280;57146;48.140;16.304;2023-07-31T03:09:57;99307.72;;;16.63;79.06
69855;BME280;57146;48.140;16.304;2023-07-31T03:12:24;99300.97;;;16.66;78.11
69855;BME280;57146;48.140;16.304;2023-07-31T03:14:51;99290.84;;;16.71;79.27
69855;BME280;57146;48.140;16.304;2023-07-31T03:17:18;99297.41;;;16.74;79.20
69855;BME280;57146;48.140;16.304;2023-07-31T03:19:45;99298.19;;;16.74;78.54
69855;BME280;57146;48.140;16.304;2023-07-31T03:22:12;99293.63;;;16.75;79.57
69855;BME280;57146;48.140;16.304;2023-07-31T03:24:39;99300.84;;;16.74;79.58
69855;BME280;57146;48.140;16.304;2023-07-31T03:27:06;99296.16;;;16.71;79.78
69855;BME280;57146;48.140;16.304;2023-07-31T03:29:33;99307.91;;;16.70;80.16
69855;BME280;57146;48.140;16.304;2023-07-31T03:32:01;99308.50;;;16.64;81.56
69855;BME280;57146;48.140;16.304;2023-07-31T03:34:28;99314.47;;;16.61;81.10
69855;BME280;57146;48.140;16.304;2023-07-31T03:36:55;99316.28;;;16.57;81.09
69855;BME280;57146;48.140;16.304;2023-07-31T03:39:22;99310.63;;;16.58;81.48
69855;BME280;57146;48.140;16.304;2023-07-31T03:41:49;99309.63;;;16.63;81.74
69855;BME280;57146;48.140;16.304;2023-07-31T03:44:18;99306.28;;;16.66;81.72
69855;BME280;57146;48.140;16.304;2023-07-31T03:46:45;99318.25;;;16.60;81.93
69855;BME280;57146;48.140;16.304;2023-07-31T03:49:12;99316.03;;;16.62;82.54
69855;BME280;57146;48.140;16.304;2023-07-31T03:51:39;99312.19;;;16.59;83.20
69855;BME280;57146;48.140;16.304;2023-07-31T03:54:07;99319.47;;;16.62;82.58
69855;BME280;57146;48.140;16.304;2023-07-31T03:56:33;99316.91;;;16.66;82.84
69855;BME280;57146;48.140;16.304;2023-07-31T03:59:02;99319.31;;;16.71;82.69
69855;BME280;57146;48.140;16.304;2023-07-31T04:01:29;99308.91;;;16.78;81.94
69855;BME280;57146;48.140;16.304;2023-07-31T04:03:56;99314.41;;;16.85;82.24
69855;BME280;57146;48.140;16.304;2023-07-31T04:06:25;99311.53;;;16.90;82.37
69855;BME280;57146;48.140;16.304;2023-07-31T04:08:52;99314.69;;;16.96;82.01
69855;BME280;57146;48.140;16.304;2023-07-31T04:11:20;99321.66;;;17.01;82.05
69855;BME280;57146;48.140;16.304;2023-07-31T04:13:50;99316.84;;;17.06;80.30
69855;BME280;57146;48.140;16.304;2023-07-31T04:16:17;99315.06;;;17.10;80.47
69855;BME280;57146;48.140;16.304;2023-07-31T04:18:45;99309.50;;;17.15;79.81
69855;BME280;57146;48.140;16.304;2023-07-31T04:21:37;99313.09;;;17.23;78.94
69855;BME280;57146;48.140;16.304;2023-07-31T04:24:30;99304.09;;;17.28;79.12
69855;BME280;57146;48.140;16.304;2023-07-31T04:27:02;99299.28;;;17.33;77.29
69855;BME280;57146;48.140;16.304;2023-07-31T04:29:29;99296.72;;;17.37;75.88
69855;BME280;57146;48.140;16.304;2023-07-31T04:31:57;99288.13;;;17.43;75.89
69855;BME280;57146;48.140;16.304;2023-07-31T04:34:24;99293.09;;;17.45;74.96
69855;BME280;57146;48.140;16.304;2023-07-31T04:36:52;99290.88;;;17.47;74.26
69855;BME280;57146;48.140;16.304;2023-07-31T04:39:19;99302.38;;;17.51;73.72
69855;BME280;57146;48.140;16.304;2023-07-31T04:41:48;99305.53;;;17.57;74.77
69855;BME280;57146;48.140;16.304;2023-07-31T04:44:15;99302.94;;;17.60;73.84
69855;BME280;57146;48.140;16.304;2023-07-31T04:46:42;99313.19;;;17.58;72.82
69855;BME280;57146;48.140;16.304;2023-07-31T04:49:14;99312.50;;;17.61;74.14
69855;BME280;57146;48.140;16.304;2023-07-31T04:51:41;99322.09;;;17.66;71.75
69855;BME280;57146;48.140;16.304;2023-07-31T04:54:32;99320.28;;;17.70;71.61
69855;BME280;57146;48.140;16.304;2023-07-31T04:56:59;99323.50;;;17.76;73.41
69855;BME280;57146;48.140;16.304;2023-07-31T04:59:26;99312.56;;;17.81;72.28
69855;BME280;57146;48.140;16.304;2023-07-31T05:01:53;99313.00;;;17.83;71.12
69855;BME280;57146;48.140;16.304;2023-07-31T05:04:20;99320.63;;;17.84;71.60
69855;BME280;57146;48.140;16.304;2023-07-31T05:06:47;99319.59;;;17.89;69.61
69855;BME280;57146;48.140;16.304;2023-07-31T05:09:14;99325.78;;;17.93;69.98
69855;BME280;57146;48.140;16.304;2023-07-31T05:11:42;99323.22;;;17.97;69.69
69855;BME280;57146;48.140;16.304;2023-07-31T05:14:09;99324.91;;;18.05;70.66
69855;BME280;57146;48.140;16.304;2023-07-31T05:16:40;99327.28;;;18.10;69.35
69855;BME280;57146;48.140;16.304;2023-07-31T05:19:07;99333.88;;;18.16;68.50
69855;BME280;57146;48.140;16.304;2023-07-31T05:21:35;99337.06;;;18.22;68.68
69855;BME280;57146;48.140;16.304;2023-07-31T05:24:03;99333.34;;;18.26;67.67
69855;BME280;57146;48.140;16.304;2023-07-31T05:26:30;99337.97;;;18.29;67.74
69855;BME280;57146;48.140;16.304;2023-07-31T05:29:01;99336.84;;;18.30;67.57
69855;BME280;57146;48.140;16.304;2023-07-31T05:31:28;99340.22;;;18.27;67.13
69855;BME280;57146;48.140;16.304;2023-07-31T05:34:20;99333.19;;;18.38;66.12
69855;BME280;57146;48.140;16.304;2023-07-31T05:36:51;99335.38;;;18.52;66.40
69855;BME280;57146;48.140;16.304;2023-07-31T05:39:18;99331.53;;;18.69;65.35
69855;BME280;57146;48.140;16.304;2023-07-31T05:41:45;99331.13;;;18.86;65.33
69855;BME280;57146;48.140;16.304;2023-07-31T05:44:12;99329.41;;;18.98;64.66
69855;BME280;57146;48.140;16.304;2023-07-31T05:46:39;99329.38;;;19.17;64.30
69855;BME280;57146;48.140;16.304;2023-07-31T05:49:08;99329.47;;;19.24;63.53
69855;BME280;57146;48.140;16.304;2023-07-31T05:51:35;99332.69;;;19.33;63.67
69855;BME280;57146;48.140;16.304;2023-07-31T05:54:03;99333.47;;;19.57;63.98
69855;BME280;57146;48.140;16.304;2023-07-31T05:56:30;99329.78;;;19.65;62.18
69855;BME280;57146;48.140;16.304;2023-07-31T05:58:57;99343.31;;;19.76;61.66
69855;BME280;57146;48.140;16.304;2023-07-31T06:01:24;99335.44;;;19.87;61.72
69855;BME280;57146;48.140;16.304;2023-07-31T06:03:51;99335.78;;;19.85;60.33
69855;BME280;57146;48.140;16.304;2023-07-31T06:06:18;99331.75;;;19.95;60.90
69855;BME280;57146;48.140;16.304;2023-07-31T06:08:46;99333.75;;;20.01;60.53
69855;BME280;57146;48.140;16.304;2023-07-31T06:11:13;99330.41;;;20.08;60.13
69855;BME280;57146;48.140;16.304;2023-07-31T06:13:40;99332.66;;;20.06;59.75
69855;BME280;57146;48.140;16.304;2023-07-31T06:16:11;99324.50;;;19.95;59.94
69855;BME280;57146;48.140;16.304;2023-07-31T06:18:38;99332.16;;;19.97;60.02
69855;BME280;57146;48.140;16.304;2023-07-31T06:21:05;99333.25;;;20.22;60.82
69855;BME280;57146;48.140;16.304;2023-07-31T06:23:32;99334.88;;;20.30;58.74
69855;BME280;57146;48.140;16.304;2023-07-31T06:26:24;99335.59;;;20.27;57.16
69855;BME280;57146;48.140;16.304;2023-07-31T06:28:51;99327.41;;;20.43;57.33
69855;BME280;57146;48.140;16.304;2023-07-31T06:31:19;99331.28;;;20.46;56.63
69855;BME280;57146;48.140;16.304;2023-07-31T06:33:46;99328.16;;;20.40;56.66
69855;BME280;57146;48.140;16.304;2023-07-31T06:36:14;99325.94;;;20.46;55.82
69855;BME280;57146;48.140;16.304;2023-07-31T06:38:41;99330.63;;;20.56;54.29
69855;BME280;57146;48.140;16.304;2023-07-31T06:41:08;99327.34;;;20.70;54.26
69855;BME280;57146;48.140;16.304;2023-07-31T06:43:37;99328.13;;;20.70;53.38
69855;BME280;57146;48.140;16.304;2023-07-31T06:46:05;99328.06;;;20.67;53.69
69855;BME280;57146;48.140;16.304;2023-07-31T06:48:34;99322.84;;;20.77;54.05
69855;BME280;57146;48.140;16.304;2023-07-31T06:51:01;99325.75;;;20.99;53.35
69855;BME280;57146;48.140;16.304;2023-07-31T06:53:28;99329.94;;;20.96;52.73
69855;BME280;57146;48.140;16.304;2023-07-31T06:55:55;99323.38;;;20.90;52.68
69855;BME280;57146;48.140;16.304;2023-07-31T06:58:23;99324.91;;;20.91;52.54
69855;BME280;57146;48.140;16.304;2023-07-31T07:00:49;99321.06;;;20.89;51.57
69855;BME280;57146;48.140;16.304;2023-07-31T07:03:41;99321.28;;;21.10;51.35
69855;BME280;57146;48.140;16.304;2023-07-31T07:06:08;99324.00;;;21.17;50.52
69855;BME280;57146;48.140;16.304;2023-07-31T07:08:35;99321.78;;;21.26;51.95
69855;BME280;57146;48.140;16.304;2023-07-31T07:11:02;99317.03;;;21.50;51.62
69855;BME280;57146;48.140;16.304;2023-07-31T07:13:30;99322.91;;;21.22;49.38
69855;BME280;57146;48.140;16.304;2023-07-31T07:15:57;99332.03;;;21.17;49.98
69855;BME280;57146;48.140;16.304;2023-07-31T07:18:24;99320.97;;;21.19;50.44
69855;BME280;57146;48.140;16.304;2023-07-31T07:20:53;99315.22;;;21.17;50.12
69855;BME280;57146;48.140;16.304;2023-07-31T07:23:20;99327.03;;;21.16;49.57
69855;BME280;57146;48.140;16.304;2023-07-31T07:25:48;99329.84;;;21.30;49.32
69855;BME280;57146;48.140;16.304;2023-07-31T07:28:16;99319.22;;;21.37;49.60
69855;BME280;57146;48.140;16.304;2023-07-31T07:30:44;99326.78;;;21.28;49.21
69855;BME280;57146;48.140;16.304;2023-07-31T07:33:11;99319.78;;;21.16;50.03
69855;BME280;57146;48.140;16.304;2023-07-31T07:35:38;99317.50;;;21.18;50.46
69855;BME280;57146;48.140;16.304;2023-07-31T07:38:05;99315.44;;;21.38;50.52
69855;BME280;57146;48.140;16.304;2023-07-31T07:40:32;99312.00;;;21.45;49.94
69855;BME280;57146;48.140;16.304;2023-07-31T07:43:00;99318.50;;;21.44;50.35
69855;BME280;57146;48.140;16.304;2023-07-31T07:45:27;99321.88;;;21.34;48.83
69855;BME280;57146;48.140;16.304;2023-07-31T07:47:54;99316.06;;;21.28;49.15
69855;BME280;57146;48.140;16.304;2023-07-31T07:50:21;99311.44;;;21.21;48.49
69855;BME280;57146;48.140;16.304;2023-07-31T07:52:52;99311.25;;;21.44;48.97
69855;BME280;57146;48.140;16.304;2023-07-31T07:55:19;99304.50;;;21.65;49.46
69855;BME280;57146;48.140;16.304;2023-07-31T07:57:46;99310.34;;;21.78;50.42
69855;BME280;57146;48.140;16.304;2023-07-31T08:00:13;99310.03;;;21.90;49.93
69855;BME280;57146;48.140;16.304;2023-07-31T08:02:41;99310.38;;;21.81;47.78
69855;BME280;57146;48.140;16.304;2023-07-31T08:05:08;99304.91;;;21.67;47.81
69855;BME280;57146;48.140;16.304;2023-07-31T08:07:36;99303.19;;;21.41;48.87
69855;BME280;57146;48.140;16.304;2023-07-31T08:10:03;99302.16;;;21.56;49.38
69855;BME280;57146;48.140;16.304;2023-07-31T08:12:30;99304.53;;;21.68;48.24
69855;BME280;57146;48.140;16.304;2023-07-31T08:14:58;99301.19;;;21.86;49.05
69855;BME280;57146;48.140;16.304;2023-07-31T08:17:25;99292.84;;;21.98;47.88
69855;BME280;57146;48.140;16.304;2023-07-31T08:19:52;99303.56;;;22.02;47.94
69855;BME280;57146;48.140;16.304;2023-07-31T08:22:20;99307.44;;;22.08;46.87
69855;BME280;57146;48.140;16.304;2023-07-31T08:24:47;99306.63;;;21.96;46.30
69855;BME280;57146;48.140;16.304;2023-07-31T08:27:20;99313.88;;;21.96;47.32
69855;BME280;57146;48.140;16.304;2023-07-31T08:29:55;99306.50;;;21.79;47.59
69855;BME280;57146;48.140;16.304;2023-07-31T08:32:22;99305.09;;;21.95;47.36
69855;BME280;57146;48.140;16.304;2023-07-31T08:34:50;99300.53;;;22.07;46.28
69855;BME280;57146;48.140;16.304;2023-07-31T08:37:17;99304.34;;;21.98;46.79
69855;BME280;57146;48.140;16.304;2023-07-31T08:39:45;99302.41;;;21.95;47.24
69855;BME280;57146;48.140;16.304;2023-07-31T08:42:12;99295.94;;;22.04;47.81
69855;BME280;57146;48.140;16.304;2023-07-31T08:44:39;99297.06;;;21.99;47.50
69855;BME280;57146;48.140;16.304;2023-07-31T08:47:07;99285.16;;;21.93;47.93
69855;BME280;57146;48.140;16.304;2023-07-31T08:49:35;99292.53;;;22.14;47.23
69855;BME280;57146;48.140;16.304;2023-07-31T08:52:04;99301.78;;;22.20;44.83
69855;BME280;57146;48.140;16.304;2023-07-31T08:54:32;99295.66;;;22.27;46.00
69855;BME280;57146;48.140;16.304;2023-07-31T08:56:59;99293.06;;;22.48;45.94
69855;BME280;57146;48.140;16.304;2023-07-31T08:59:31;99291.56;;;22.65;45.27
69855;BME280;57146;48.140;16.304;2023-07-31T09:02:04;99288.13;;;22.61;44.28
69855;BME280;57146;48.140;16.304;2023-07-31T09:04:33;99288.47;;;22.41;44.63
69855;BME280;57146;48.140;16.304;2023-07-31T09:07:02;99291.53;;;22.43;44.57
69855;BME280;57146;48.140;16.304;2023-07-31T09:09:35;99277.00;;;22.59;44.73
69855;BME280;57146;48.140;16.304;2023-07-31T09:12:02;99283.53;;;22.65;44.31
69855;BME280;57146;48.140;16.304;2023-07-31T09:14:29;99272.81;;;22.76;44.04
69855;BME280;57146;48.140;16.304;2023-07-31T09:16:58;99271.28;;;22.75;44.57
69855;BME280;57146;48.140;16.304;2023-07-31T09:19:50;99278.19;;;22.83;44.04
69855;BME280;57146;48.140;16.304;2023-07-31T09:22:17;99267.50;;;22.97;44.21
69855;BME280;57146;48.140;16.304;2023-07-31T09:24:44;99276.31;;;23.08;43.91
69855;BME280;57146;48.140;16.304;2023-07-31T09:27:11;99273.22;;;22.88;42.91
69855;BME280;57146;48.140;16.304;2023-07-31T09:29:38;99287.41;;;22.89;43.36
69855;BME280;57146;48.140;16.304;2023-07-31T09:32:15;99279.72;;;22.77;43.25
69855;BME280;57146;48.140;16.304;2023-07-31T09:34:42;99273.22;;;22.74;43.88
69855;BME280;57146;48.140;16.304;2023-07-31T09:37:11;99272.44;;;22.77;44.23
69855;BME280;57146;48.140;16.304;2023-07-31T09:39:47;99276.31;;;22.98;44.11
69855;BME280;57146;48.140;16.304;2023-07-31T09:42:25;99268.66;;;23.10;43.18
69855;BME280;57146;48.140;16.304;2023-07-31T09:44:52;99273.28;;;23.06;42.78
69855;BME280;57146;48.140;16.304;2023-07-31T09:47:23;99267.44;;;22.61;42.72
69855;BME280;57146;48.140;16.304;2023-07-31T09:49:50;99259.03;;;22.74;45.86
69855;BME280;57146;48.140;16.304;2023-07-31T09:52:17;99257.09;;;22.70;43.88
69855;BME280;57146;48.140;16.304;2023-07-31T09:54:44;99257.53;;;23.01;44.22
69855;BME280;57146;48.140;16.304;2023-07-31T09:57:11;99260.94;;;22.84;41.87
69855;BME280;57146;48.140;16.304;2023-07-31T09:59:38;99252.88;;;22.73;42.06
69855;BME280;57146;48.140;16.304;2023-07-31T10:02:09;99247.16;;;22.89;42.22
69855;BME280;57146;48.140;16.304;2023-07-31T10:04:42;99243.75;;;23.10;43.52
69855;BME280;57146;48.140;16.304;2023-07-31T10:07:38;99252.16;;;22.94;41.16
69855;BME280;57146;48.140;16.304;2023-07-31T10:10:29;99235.28;;;22.93;41.68
69855;BME280;57146;48.140;16.304;2023-07-31T10:13:20;99238.75;;;23.05;42.40
69855;BME280;57146;48.140;16.304;2023-07-31T10:15:48;99238.38;;;23.13;41.66
69855;BME280;57146;48.140;16.304;2023-07-31T10:18:16;99231.84;;;23.14;41.51
69855;BME280;57146;48.140;16.304;2023-07-31T10:20:46;99221.88;;;23.04;40.10
69855;BME280;57146;48.140;16.304;2023-07-31T10:23:14;99231.06;;;23.10;40.66
69855;BME280;57146;48.140;16.304;2023-07-31T10:25:42;99216.50;;;23.11;40.34
69855;BME280;57146;48.140;16.304;2023-07-31T10:28:10;99213.44;;;23.13;40.78
69855;BME280;57146;48.140;16.304;2023-07-31T10:30:39;99214.19;;;23.31;41.05
69855;BME280;57146;48.140;16.304;2023-07-31T10:33:06;99211.81;;;23.58;39.94
69855;BME280;57146;48.140;16.304;2023-07-31T10:35:34;99204.91;;;23.57;39.45
69855;BME280;57146;48.140;16.304;2023-07-31T10:38:11;99196.06;;;23.60;40.12
69855;BME280;57146;48.140;16.304;2023-07-31T10:40:39;99184.88;;;23.83;40.55
69855;BME280;57146;48.140;16.304;2023-07-31T10:43:08;99191.81;;;23.77;40.88
69855;BME280;57146;48.140;16.304;2023-07-31T10:45:41;99185.69;;;23.80;40.08
69855;BME280;57146;48.140;16.304;2023-07-31T10:48:14;99181.00;;;23.92;40.16
69855;BME280;57146;48.140;16.304;2023-07-31T10:50:52;99187.16;;;23.92;39.25
69855;BME280;57146;48.140;16.304;2023-07-31T10:53:31;99181.09;;;23.70;39.34
69855;BME280;57146;48.140;16.304;2023-07-31T10:56:01;99171.13;;;23.56;39.63
69855;BME280;57146;48.140;16.304;2023-07-31T10:58:28;99175.34;;;23.57;39.34
69855;BME280;57146;48.140;16.304;2023-07-31T11:00:57;99165.75;;;23.71;39.49
69855;BME280;57146;48.140;16.304;2023-07-31T11:03:48;99164.94;;;23.81;40.03
69855;BME280;57146;48.140;16.304;2023-07-31T11:06:16;99167.25;;;23.75;39.00
69855;BME280;57146;48.140;16.304;2023-07-31T11:08:50;99159.97;;;23.65;38.38
69855;BME280;57146;48.140;16.304;2023-07-31T11:11:19;99161.16;;;23.53;39.72
69855;BME280;57146;48.140;16.304;2023-07-31T11:13:49;99154.28;;;23.49;39.58
69855;BME280;57146;48.140;16.304;2023-07-31T11:16:22;99154.28;;;23.52;38.81
69855;BME280;57146;48.140;16.304;2023-07-31T11:18:50;99152.34;;;23.56;38.69
69855;BME280;57146;48.140;16.304;2023-07-31T11:21:19;99152.69;;;23.62;39.28
69855;BME280;57146;48.140;16.304;2023-07-31T11:24:12;99148.84;;;23.66;39.03
69855;BME280;57146;48.140;16.304;2023-07-31T11:26:51;99143.00;;;23.86;40.07
69855;BME280;57146;48.140;16.304;2023-07-31T11:29:19;99144.44;;;24.05;37.91
69855;BME280;57146;48.140;16.304;2023-07-31T11:31:47;99138.59;;;24.21;37.86
69855;BME280;57146;48.140;16.304;2023-07-31T11:34:15;99127.38;;;24.29;37.44
69855;BME280;57146;48.140;16.304;2023-07-31T11:36:53;99131.94;;;24.43;37.32
69855;BME280;57146;48.140;16.304;2023-07-31T11:39:20;99127.75;;;24.35;37.68
69855;BME280;57146;48.140;16.304;2023-07-31T11:41:47;99127.06;;;24.24;38.07
69855;BME280;57146;48.140;16.304;2023-07-31T11:44:15;99121.59;;;24.34;40.82
69855;BME280;57146;48.140;16.304;2023-07-31T11:47:19;99110.13;;;24.27;38.23
69855;BME280;57146;48.140;16.304;2023-07-31T11:49:50;99111.97;;;24.41;38.42
69855;BME280;57146;48.140;16.304;2023-07-31T11:52:18;99108.41;;;24.51;37.00
69855;BME280;57146;48.140;16.304;2023-07-31T11:54:45;99110.00;;;24.48;36.88
69855;BME280;57146;48.140;16.304;2023-07-31T11:57:13;99102.22;;;24.57;35.78
69855;BME280;57146;48.140;16.304;2023-07-31T11:59:40;99098.78;;;24.53;36.09
69855;BME280;57146;48.140;16.304;2023-07-31T12:02:08;99106.03;;;24.60;36.79
69855;BME280;57146;48.140;16.304;2023-07-31T12:04:37;99091.34;;;24.68;35.61
69855;BME280;57146;48.140;16.304;2023-07-31T12:07:05;99090.31;;;24.58;34.39
69855;BME280;57146;48.140;16.304;2023-07-31T12:09:32;99092.91;;;24.69;35.78
69855;BME280;57146;48.140;16.304;2023-07-31T12:11:59;99085.38;;;24.50;35.50
69855;BME280;57146;48.140;16.304;2023-07-31T12:14:27;99083.31;;;24.65;35.98
69855;BME280;57146;48.140;16.304;2023-07-31T12:17:01;99083.66;;;24.70;35.01
69855;BME280;57146;48.140;16.304;2023-07-31T12:19:31;99071.28;;;24.80;35.80
69855;BME280;57146;48.140;16.304;2023-07-31T12:22:00;99067.22;;;24.99;35.72
69855;BME280;57146;48.140;16.304;2023-07-31T12:24:27;99067.84;;;25.10;36.77
69855;BME280;57146;48.140;16.304;2023-07-31T12:26:54;99058.56;;;25.18;35.41
69855;BME280;57146;48.140;16.304;2023-07-31T12:29:21;99047.44;;;25.16;34.45
69855;BME280;57146;48.140;16.304;2023-07-31T12:31:48;99043.19;;;25.19;34.61
69855;BME280;57146;48.140;16.304;2023-07-31T12:34:20;99027.81;;;25.16;34.94
69855;BME280;57146;48.140;16.304;2023-07-31T12:36:48;99031.72;;;25.11;35.11
69855;BME280;57146;48.140;16.304;2023-07-31T12:39:17;99035.91;;;25.16;35.17
69855;BME280;57146;48.140;16.304;2023-07-31T12:41:45;99023.50;;;25.22;35.37
69855;BME280;57146;48.140;16.304;2023-07-31T12:44:12;99014.53;;;25.32;35.48
69855;BME280;57146;48.140;16.304;2023-07-31T12:46:41;99020.13;;;25.45;36.51
69855;BME280;57146;48.140;16.304;2023-07-31T12:49:09;99012.81;;;25.45;35.46
69855;BME280;57146;48.140;16.304;2023-07-31T12:51:36;99008.84;;;25.53;36.05
69855;BME280;57146;48.140;16.304;2023-07-31T12:54:03;99014.13;;;25.61;36.09
69855;BME280;57146;48.140;16.304;2023-07-31T12:56:30;99002.59;;;25.60;35.01
69855;BME280;57146;48.140;16.304;2023-07-31T12:59:01;99002.59;;;25.60;35.00
69855;BME280;57146;48.140;16.304;2023-07-31T13:01:28;98992.88;;;25.66;36.13
69855;BME280;57146;48.140;16.304;2023-07-31T13:03:55;98997.00;;;25.74;35.00
69855;BME280;57146;48.140;16.304;2023-07-31T13:06:47;98990.84;;;25.74;33.33